sensor_id;sensor_type;location;lat;lon;timestamp;temperature;humidity
10133;DHT22;5106;50.926;7.080;2023-04-25T00:00:47;7.60;79.50
10133;DHT22;5106;50.926;7.080;2023-04-25T00:03:13;7.60;79.50
10133;DHT22;5106;50.926;7.080;2023-04-25T00:05:39;7.60;79.50
10133;DHT22;5106;50.926;7.080;2023-04-25T00:08:05;7.50;79.60
10133;DHT22;5106;50.926;7.080;2023-04-25T00:10:31;7.50;79.70
10133;DHT22;5106;50.926;7.080;2023-04-25T00:12:56;7.50;79.90
10133;DHT22;5106;50.926;7.080;2023-04-25T00:15:22;7.50;79.90
10133;DHT22;5106;50.926;7.080;2023-04-25T00:17:49;7.50;80.10
10133;DHT22;5106;50.926;7.080;2023-04-25T00:20:15;7.50;80.00
10133;DHT22;5106;50.926;7.080;2023-04-25T00:22:41;7.50;79.90
10133;DHT22;5106;50.926;7.080;2023-04-25T00:25:06;7.50;79.70
10133;DHT22;5106;50.926;7.080;2023-04-25T00:27:32;7.50;79.90
10133;DHT22;5106;50.926;7.080;2023-04-25T00:29:58;7.40;79.90
10133;DHT22;5106;50.926;7.080;2023-04-25T00:32:23;7.40;80.10
10133;DHT22;5106;50.926;7.080;2023-04-25T00:34:49;7.40;80.10
10133;DHT22;5106;50.926;7.080;2023-04-25T00:37:15;7.40;80.20
10133;DHT22;5106;50.926;7.080;2023-04-25T00:39:41;7.40;80.10
10133;DHT22;5106;50.926;7.080;2023-04-25T00:42:07;7.40;80.30
10133;DHT22;5106;50.926;7.080;2023-04-25T00:44:34;7.40;80.40
10133;DHT22;5106;50.926;7.080;2023-04-25T00:47:02;7.40;80.60
10133;DHT22;5106;50.926;7.080;2023-04-25T00:49:27;7.40;80.60
10133;DHT22;5106;50.926;7.080;2023-04-25T00:51:54;7.40;80.70
10133;DHT22;5106;50.926;7.080;2023-04-25T00:54:23;7.30;80.70
10133;DHT22;5106;50.926;7.080;2023-04-25T00:56:48;7.30;80.80
10133;DHT22;5106;50.926;7.080;2023-04-25T00:59:14;7.20;80.40
10133;DHT22;5106;50.926;7.080;2023-04-25T01:01:41;7.20;80.60
10133;DHT22;5106;50.926;7.080;2023-04-25T01:04:10;7.20;80.40
10133;DHT22;5106;50.926;7.080;2023-04-25T01:06:42;7.20;80.40
10133;DHT22;5106;50.926;7.080;2023-04-25T01:09:08;7.20;80.60
10133;DHT22;5106;50.926;7.080;2023-04-25T01:11:34;7.20;80.60
10133;DHT22;5106;50.926;7.080;2023-04-25T01:14:00;7.10;80.70
10133;DHT22;5106;50.926;7.080;2023-04-25T01:16:27;7.10;80.80
10133;DHT22;5106;50.926;7.080;2023-04-25T01:18:54;7.10;80.80
10133;DHT22;5106;50.926;7.080;2023-04-25T01:21:23;7.10;80.90
10133;DHT22;5106;50.926;7.080;2023-04-25T01:24:00;7.00;80.90
10133;DHT22;5106;50.926;7.080;2023-04-25T01:26:26;7.00;80.80
10133;DHT22;5106;50.926;7.080;2023-04-25T01:29:21;7.00;81.00
10133;DHT22;5106;50.926;7.080;2023-04-25T01:31:51;6.90;81.10
10133;DHT22;5106;50.926;7.080;2023-04-25T01:34:26;6.90;80.90
10133;DHT22;5106;50.926;7.080;2023-04-25T01:36:51;6.80;81.00
10133;DHT22;5106;50.926;7.080;2023-04-25T01:39:18;6.80;81.00
10133;DHT22;5106;50.926;7.080;2023-04-25T01:41:45;6.80;81.00
10133;DHT22;5106;50.926;7.080;2023-04-25T01:44:11;6.80;81.10
10133;DHT22;5106;50.926;7.080;2023-04-25T01:46:37;6.80;81.20
10133;DHT22;5106;50.926;7.080;2023-04-25T01:49:03;6.80;81.20
10133;DHT22;5106;50.926;7.080;2023-04-25T01:51:34;6.90;81.50
10133;DHT22;5106;50.926;7.080;2023-04-25T01:54:00;6.90;81.30
10133;DHT22;5106;50.926;7.080;2023-04-25T01:56:30;6.90;81.20
10133;DHT22;5106;50.926;7.080;2023-04-25T01:58:57;6.80;81.10
10133;DHT22;5106;50.926;7.080;2023-04-25T02:01:22;6.80;81.20
10133;DHT22;5106;50.926;7.080;2023-04-25T02:03:48;6.80;81.00
10133;DHT22;5106;50.926;7.080;2023-04-25T02:06:14;6.80;81.10
10133;DHT22;5106;50.926;7.080;2023-04-25T02:08:39;6.70;81.20
10133;DHT22;5106;50.926;7.080;2023-04-25T02:11:05;6.70;81.20
10133;DHT22;5106;50.926;7.080;2023-04-25T02:13:30;6.70;81.10
10133;DHT22;5106;50.926;7.080;2023-04-25T02:15:56;6.70;81.20
10133;DHT22;5106;50.926;7.080;2023-04-25T02:18:22;6.70;81.40
10133;DHT22;5106;50.926;7.080;2023-04-25T02:20:48;6.70;81.30
10133;DHT22;5106;50.926;7.080;2023-04-25T02:23:14;6.60;81.40
10133;DHT22;5106;50.926;7.080;2023-04-25T02:25:41;6.60;81.50
10133;DHT22;5106;50.926;7.080;2023-04-25T02:28:06;6.60;81.30
10133;DHT22;5106;50.926;7.080;2023-04-25T02:30:32;6.50;81.60
10133;DHT22;5106;50.926;7.080;2023-04-25T02:32:58;6.50;81.60
10133;DHT22;5106;50.926;7.080;2023-04-25T02:35:23;6.50;81.70
10133;DHT22;5106;50.926;7.080;2023-04-25T02:37:49;6.50;81.70
10133;DHT22;5106;50.926;7.080;2023-04-25T02:40:17;6.50;81.60
10133;DHT22;5106;50.926;7.080;2023-04-25T02:42:43;6.50;81.60
10133;DHT22;5106;50.926;7.080;2023-04-25T02:45:14;6.50;81.60
10133;DHT22;5106;50.926;7.080;2023-04-25T02:47:40;6.50;81.60
10133;DHT22;5106;50.926;7.080;2023-04-25T02:50:06;6.50;81.70
10133;DHT22;5106;50.926;7.080;2023-04-25T02:52:31;6.50;81.60
10133;DHT22;5106;50.926;7.080;2023-04-25T02:54:59;6.50;81.70
10133;DHT22;5106;50.926;7.080;2023-04-25T02:57:25;6.50;81.60
10133;DHT22;5106;50.926;7.080;2023-04-25T02:59:50;6.50;81.80
10133;DHT22;5106;50.926;7.080;2023-04-25T03:02:16;6.60;81.80
10133;DHT22;5106;50.926;7.080;2023-04-25T03:04:41;6.60;81.70
10133;DHT22;5106;50.926;7.080;2023-04-25T03:07:07;6.60;81.50
10133;DHT22;5106;50.926;7.080;2023-04-25T03:09:33;6.60;81.60
10133;DHT22;5106;50.926;7.080;2023-04-25T03:11:58;6.60;81.60
10133;DHT22;5106;50.926;7.080;2023-04-25T03:14:24;6.60;81.70
10133;DHT22;5106;50.926;7.080;2023-04-25T03:16:49;6.60;81.60
10133;DHT22;5106;50.926;7.080;2023-04-25T03:19:15;6.70;81.70
10133;DHT22;5106;50.926;7.080;2023-04-25T03:21:44;6.80;81.80
10133;DHT22;5106;50.926;7.080;2023-04-25T03:24:10;6.80;81.70
10133;DHT22;5106;50.926;7.080;2023-04-25T03:26:36;6.70;81.70
10133;DHT22;5106;50.926;7.080;2023-04-25T03:29:02;6.70;81.70
10133;DHT22;5106;50.926;7.080;2023-04-25T03:31:27;6.70;81.70
10133;DHT22;5106;50.926;7.080;2023-04-25T03:33:53;6.70;81.60
10133;DHT22;5106;50.926;7.080;2023-04-25T03:36:18;6.70;81.80
10133;DHT22;5106;50.926;7.080;2023-04-25T03:38:44;6.70;81.70
10133;DHT22;5106;50.926;7.080;2023-04-25T03:41:10;6.70;81.80
10133;DHT22;5106;50.926;7.080;2023-04-25T03:43:35;6.70;81.70
10133;DHT22;5106;50.926;7.080;2023-04-25T03:46:01;6.70;81.70
10133;DHT22;5106;50.926;7.080;2023-04-25T03:48:27;6.80;81.70
10133;DHT22;5106;50.926;7.080;2023-04-25T03:50:53;6.80;81.60
10133;DHT22;5106;50.926;7.080;2023-04-25T03:53:19;6.90;81.60
10133;DHT22;5106;50.926;7.080;2023-04-25T03:55:45;6.90;81.40
10133;DHT22;5106;50.926;7.080;2023-04-25T03:58:12;6.90;81.30
10133;DHT22;5106;50.926;7.080;2023-04-25T04:00:38;7.00;81.00
10133;DHT22;5106;50.926;7.080;2023-04-25T04:03:04;7.00;81.00
10133;DHT22;5106;50.926;7.080;2023-04-25T04:05:30;7.00;81.00
10133;DHT22;5106;50.926;7.080;2023-04-25T04:07:56;6.90;80.90
10133;DHT22;5106;50.926;7.080;2023-04-25T04:10:22;6.90;81.00
10133;DHT22;5106;50.926;7.080;2023-04-25T04:12:47;6.90;81.00
10133;DHT22;5106;50.926;7.080;2023-04-25T04:15:13;6.90;80.90
10133;DHT22;5106;50.926;7.080;2023-04-25T04:17:39;6.80;81.10
10133;DHT22;5106;50.926;7.080;2023-04-25T04:20:06;6.80;81.20
10133;DHT22;5106;50.926;7.080;2023-04-25T04:22:32;6.80;81.30
10133;DHT22;5106;50.926;7.080;2023-04-25T04:24:58;6.80;81.40
10133;DHT22;5106;50.926;7.080;2023-04-25T04:27:23;6.80;81.60
10133;DHT22;5106;50.926;7.080;2023-04-25T04:29:49;6.70;81.50
10133;DHT22;5106;50.926;7.080;2023-04-25T04:32:17;6.70;81.80
10133;DHT22;5106;50.926;7.080;2023-04-25T04:34:43;6.70;82.00
10133;DHT22;5106;50.926;7.080;2023-04-25T04:37:08;6.70;81.90
10133;DHT22;5106;50.926;7.080;2023-04-25T04:39:35;6.70;81.90
10133;DHT22;5106;50.926;7.080;2023-04-25T04:42:01;6.80;82.20
10133;DHT22;5106;50.926;7.080;2023-04-25T04:44:27;6.80;82.00
10133;DHT22;5106;50.926;7.080;2023-04-25T04:46:53;6.80;82.00
10133;DHT22;5106;50.926;7.080;2023-04-25T04:49:19;6.80;82.30
10133;DHT22;5106;50.926;7.080;2023-04-25T04:51:45;6.80;82.00
10133;DHT22;5106;50.926;7.080;2023-04-25T04:54:11;6.80;82.20
10133;DHT22;5106;50.926;7.080;2023-04-25T04:56:36;6.70;82.00
10133;DHT22;5106;50.926;7.080;2023-04-25T04:59:02;6.70;82.20
10133;DHT22;5106;50.926;7.080;2023-04-25T05:01:28;6.70;82.30
10133;DHT22;5106;50.926;7.080;2023-04-25T05:03:55;6.70;82.30
10133;DHT22;5106;50.926;7.080;2023-04-25T05:06:25;6.80;82.40
10133;DHT22;5106;50.926;7.080;2023-04-25T05:08:51;6.80;82.40
10133;DHT22;5106;50.926;7.080;2023-04-25T05:11:18;6.80;82.40
10133;DHT22;5106;50.926;7.080;2023-04-25T05:13:44;6.80;82.40
10133;DHT22;5106;50.926;7.080;2023-04-25T05:16:11;6.80;82.60
10133;DHT22;5106;50.926;7.080;2023-04-25T05:18:37;6.80;82.60
10133;DHT22;5106;50.926;7.080;2023-04-25T05:21:03;6.80;82.40
10133;DHT22;5106;50.926;7.080;2023-04-25T05:23:28;6.70;82.50
10133;DHT22;5106;50.926;7.080;2023-04-25T05:25:56;6.80;82.50
10133;DHT22;5106;50.926;7.080;2023-04-25T05:28:22;6.80;82.50
10133;DHT22;5106;50.926;7.080;2023-04-25T05:30:47;6.80;82.50
10133;DHT22;5106;50.926;7.080;2023-04-25T05:33:13;6.80;82.50
10133;DHT22;5106;50.926;7.080;2023-04-25T05:35:42;6.80;82.60
10133;DHT22;5106;50.926;7.080;2023-04-25T05:38:08;6.80;82.50
10133;DHT22;5106;50.926;7.080;2023-04-25T05:40:33;6.80;82.30
10133;DHT22;5106;50.926;7.080;2023-04-25T05:42:59;6.80;82.40
10133;DHT22;5106;50.926;7.080;2023-04-25T05:45:24;6.80;82.30
10133;DHT22;5106;50.926;7.080;2023-04-25T05:47:50;6.80;82.50
10133;DHT22;5106;50.926;7.080;2023-04-25T05:50:15;6.80;82.30
10133;DHT22;5106;50.926;7.080;2023-04-25T05:52:41;6.80;82.50
10133;DHT22;5106;50.926;7.080;2023-04-25T05:55:07;6.80;82.30
10133;DHT22;5106;50.926;7.080;2023-04-25T05:57:33;6.80;82.30
10133;DHT22;5106;50.926;7.080;2023-04-25T05:59:58;6.80;82.50
10133;DHT22;5106;50.926;7.080;2023-04-25T06:02:24;6.80;82.40
10133;DHT22;5106;50.926;7.080;2023-04-25T06:04:50;6.80;82.50
10133;DHT22;5106;50.926;7.080;2023-04-25T06:07:17;6.80;82.30
10133;DHT22;5106;50.926;7.080;2023-04-25T06:09:43;6.80;82.30
10133;DHT22;5106;50.926;7.080;2023-04-25T06:12:09;6.80;82.20
10133;DHT22;5106;50.926;7.080;2023-04-25T06:14:35;6.80;82.30
10133;DHT22;5106;50.926;7.080;2023-04-25T06:17:00;6.80;82.30
10133;DHT22;5106;50.926;7.080;2023-04-25T06:19:32;6.80;82.40
10133;DHT22;5106;50.926;7.080;2023-04-25T06:21:58;6.80;82.50
10133;DHT22;5106;50.926;7.080;2023-04-25T06:24:23;6.80;82.30
10133;DHT22;5106;50.926;7.080;2023-04-25T06:26:49;6.80;82.20
10133;DHT22;5106;50.926;7.080;2023-04-25T06:29:15;6.90;82.10
10133;DHT22;5106;50.926;7.080;2023-04-25T06:31:40;6.90;82.00
10133;DHT22;5106;50.926;7.080;2023-04-25T06:34:06;7.00;82.50
10133;DHT22;5106;50.926;7.080;2023-04-25T06:36:34;7.10;82.40
10133;DHT22;5106;50.926;7.080;2023-04-25T06:39:00;7.30;82.60
10133;DHT22;5106;50.926;7.080;2023-04-25T06:41:26;7.40;82.40
10133;DHT22;5106;50.926;7.080;2023-04-25T06:43:51;7.50;81.70
10133;DHT22;5106;50.926;7.080;2023-04-25T06:46:17;7.60;81.70
10133;DHT22;5106;50.926;7.080;2023-04-25T06:48:42;7.70;81.30
10133;DHT22;5106;50.926;7.080;2023-04-25T06:51:08;7.80;80.40
10133;DHT22;5106;50.926;7.080;2023-04-25T06:53:34;7.90;80.40
10133;DHT22;5106;50.926;7.080;2023-04-25T06:55:59;7.90;80.60
10133;DHT22;5106;50.926;7.080;2023-04-25T06:58:25;7.80;79.50
10133;DHT22;5106;50.926;7.080;2023-04-25T07:00:51;7.80;79.80
10133;DHT22;5106;50.926;7.080;2023-04-25T07:03:17;7.80;79.60
10133;DHT22;5106;50.926;7.080;2023-04-25T07:05:43;7.80;80.00
10133;DHT22;5106;50.926;7.080;2023-04-25T07:08:08;7.90;80.30
10133;DHT22;5106;50.926;7.080;2023-04-25T07:10:34;8.10;80.20
10133;DHT22;5106;50.926;7.080;2023-04-25T07:13:00;8.20;78.90
10133;DHT22;5106;50.926;7.080;2023-04-25T07:15:26;8.30;77.70
10133;DHT22;5106;50.926;7.080;2023-04-25T07:17:51;8.30;77.80
10133;DHT22;5106;50.926;7.080;2023-04-25T07:20:17;8.40;78.90
10133;DHT22;5106;50.926;7.080;2023-04-25T07:22:42;8.50;78.40
10133;DHT22;5106;50.926;7.080;2023-04-25T07:25:08;8.50;77.40
10133;DHT22;5106;50.926;7.080;2023-04-25T07:27:34;8.50;76.70
10133;DHT22;5106;50.926;7.080;2023-04-25T07:29:59;8.40;76.00
10133;DHT22;5106;50.926;7.080;2023-04-25T07:32:26;8.40;76.20
10133;DHT22;5106;50.926;7.080;2023-04-25T07:34:52;8.30;75.70
10133;DHT22;5106;50.926;7.080;2023-04-25T07:37:17;8.20;75.90
10133;DHT22;5106;50.926;7.080;2023-04-25T07:39:44;8.20;76.90
10133;DHT22;5106;50.926;7.080;2023-04-25T07:42:11;8.20;76.90
10133;DHT22;5106;50.926;7.080;2023-04-25T07:44:37;8.20;77.40
10133;DHT22;5106;50.926;7.080;2023-04-25T07:47:06;8.20;77.40
10133;DHT22;5106;50.926;7.080;2023-04-25T07:49:35;8.20;76.40
10133;DHT22;5106;50.926;7.080;2023-04-25T07:52:01;8.20;76.90
10133;DHT22;5106;50.926;7.080;2023-04-25T07:54:27;8.30;77.50
10133;DHT22;5106;50.926;7.080;2023-04-25T07:56:53;8.30;76.60
10133;DHT22;5106;50.926;7.080;2023-04-25T07:59:19;8.30;76.30
10133;DHT22;5106;50.926;7.080;2023-04-25T08:01:45;8.40;77.00
10133;DHT22;5106;50.926;7.080;2023-04-25T08:04:10;8.50;75.20
10133;DHT22;5106;50.926;7.080;2023-04-25T08:06:36;8.50;74.90
10133;DHT22;5106;50.926;7.080;2023-04-25T08:09:02;8.60;75.70
10133;DHT22;5106;50.926;7.080;2023-04-25T08:11:28;8.70;76.10
10133;DHT22;5106;50.926;7.080;2023-04-25T08:13:54;8.70;75.90
10133;DHT22;5106;50.926;7.080;2023-04-25T08:16:20;8.70;75.40
10133;DHT22;5106;50.926;7.080;2023-04-25T08:18:45;8.80;75.60
10133;DHT22;5106;50.926;7.080;2023-04-25T08:21:11;8.90;75.60
10133;DHT22;5106;50.926;7.080;2023-04-25T08:23:38;9.10;74.40
10133;DHT22;5106;50.926;7.080;2023-04-25T08:26:04;9.10;73.20
10133;DHT22;5106;50.926;7.080;2023-04-25T08:28:31;9.20;72.30
10133;DHT22;5106;50.926;7.080;2023-04-25T08:30:57;9.20;72.50
10133;DHT22;5106;50.926;7.080;2023-04-25T08:33:22;9.20;72.60
10133;DHT22;5106;50.926;7.080;2023-04-25T08:35:48;9.30;70.80
10133;DHT22;5106;50.926;7.080;2023-04-25T08:38:14;9.20;70.90
10133;DHT22;5106;50.926;7.080;2023-04-25T08:40:40;9.20;69.40
10133;DHT22;5106;50.926;7.080;2023-04-25T08:43:06;9.10;68.60
10133;DHT22;5106;50.926;7.080;2023-04-25T08:45:39;9.10;68.80
10133;DHT22;5106;50.926;7.080;2023-04-25T08:48:10;9.10;69.30
10133;DHT22;5106;50.926;7.080;2023-04-25T08:50:38;9.10;69.70
10133;DHT22;5106;50.926;7.080;2023-04-25T08:53:08;9.10;70.50
10133;DHT22;5106;50.926;7.080;2023-04-25T08:55:37;9.10;72.80
10133;DHT22;5106;50.926;7.080;2023-04-25T08:58:05;9.10;72.00
10133;DHT22;5106;50.926;7.080;2023-04-25T09:00:31;8.90;71.40
10133;DHT22;5106;50.926;7.080;2023-04-25T09:02:57;9.00;72.40
10133;DHT22;5106;50.926;7.080;2023-04-25T09:05:24;8.90;72.30
10133;DHT22;5106;50.926;7.080;2023-04-25T09:07:49;8.90;72.10
10133;DHT22;5106;50.926;7.080;2023-04-25T09:10:15;8.80;72.20
10133;DHT22;5106;50.926;7.080;2023-04-25T09:12:41;8.80;72.40
10133;DHT22;5106;50.926;7.080;2023-04-25T09:15:09;8.80;72.60
10133;DHT22;5106;50.926;7.080;2023-04-25T09:17:35;8.70;72.60
10133;DHT22;5106;50.926;7.080;2023-04-25T09:20:07;8.70;73.10
10133;DHT22;5106;50.926;7.080;2023-04-25T09:22:34;8.70;73.10
10133;DHT22;5106;50.926;7.080;2023-04-25T09:25:09;8.60;71.70
10133;DHT22;5106;50.926;7.080;2023-04-25T09:27:35;8.60;72.10
10133;DHT22;5106;50.926;7.080;2023-04-25T09:30:02;8.50;71.30
10133;DHT22;5106;50.926;7.080;2023-04-25T09:32:28;8.60;73.20
10133;DHT22;5106;50.926;7.080;2023-04-25T09:34:55;8.60;73.80
10133;DHT22;5106;50.926;7.080;2023-04-25T09:37:26;8.70;73.50
10133;DHT22;5106;50.926;7.080;2023-04-25T09:39:59;8.80;73.80
10133;DHT22;5106;50.926;7.080;2023-04-25T09:42:28;9.00;74.40
10133;DHT22;5106;50.926;7.080;2023-04-25T09:44:56;9.20;74.10
10133;DHT22;5106;50.926;7.080;2023-04-25T09:47:24;9.30;71.40
10133;DHT22;5106;50.926;7.080;2023-04-25T09:49:50;9.40;71.40
10133;DHT22;5106;50.926;7.080;2023-04-25T09:52:18;9.50;72.00
10133;DHT22;5106;50.926;7.080;2023-04-25T09:54:48;9.50;72.20
10133;DHT22;5106;50.926;7.080;2023-04-25T09:57:16;9.50;71.00
10133;DHT22;5106;50.926;7.080;2023-04-25T09:59:49;9.40;68.90
10133;DHT22;5106;50.926;7.080;2023-04-25T10:02:18;9.30;69.50
10133;DHT22;5106;50.926;7.080;2023-04-25T10:04:48;9.20;70.00
10133;DHT22;5106;50.926;7.080;2023-04-25T10:07:14;9.10;70.50
10133;DHT22;5106;50.926;7.080;2023-04-25T10:09:41;9.10;71.00
10133;DHT22;5106;50.926;7.080;2023-04-25T10:12:09;9.10;70.40
10133;DHT22;5106;50.926;7.080;2023-04-25T10:14:35;9.00;68.40
10133;DHT22;5106;50.926;7.080;2023-04-25T10:17:01;9.00;70.60
10133;DHT22;5106;50.926;7.080;2023-04-25T10:19:27;9.00;71.50
10133;DHT22;5106;50.926;7.080;2023-04-25T10:22:14;9.00;71.30
10133;DHT22;5106;50.926;7.080;2023-04-25T10:24:42;9.10;70.70
10133;DHT22;5106;50.926;7.080;2023-04-25T10:27:09;9.10;69.80
10133;DHT22;5106;50.926;7.080;2023-04-25T10:29:35;9.10;68.80
10133;DHT22;5106;50.926;7.080;2023-04-25T10:32:02;9.10;68.70
10133;DHT22;5106;50.926;7.080;2023-04-25T10:37:05;9.10;68.10
10133;DHT22;5106;50.926;7.080;2023-04-25T10:39:33;9.10;67.50
10133;DHT22;5106;50.926;7.080;2023-04-25T10:42:02;9.20;68.80
10133;DHT22;5106;50.926;7.080;2023-04-25T10:44:28;9.30;67.40
10133;DHT22;5106;50.926;7.080;2023-04-25T10:47:07;9.20;66.40
10133;DHT22;5106;50.926;7.080;2023-04-25T10:49:42;9.30;67.00
10133;DHT22;5106;50.926;7.080;2023-04-25T10:52:26;9.40;67.50
10133;DHT22;5106;50.926;7.080;2023-04-25T10:54:57;9.70;66.00
10133;DHT22;5106;50.926;7.080;2023-04-25T11:00:11;9.90;63.70
10133;DHT22;5106;50.926;7.080;2023-04-25T11:02:51;9.80;63.10
10133;DHT22;5106;50.926;7.080;2023-04-25T11:05:24;9.70;61.50
10133;DHT22;5106;50.926;7.080;2023-04-25T11:07:53;9.50;62.40
10133;DHT22;5106;50.926;7.080;2023-04-25T11:10:32;9.40;63.30
10133;DHT22;5106;50.926;7.080;2023-04-25T11:13:00;9.30;65.00
10133;DHT22;5106;50.926;7.080;2023-04-25T11:15:26;9.30;66.10
10133;DHT22;5106;50.926;7.080;2023-04-25T11:17:53;9.20;68.50
10133;DHT22;5106;50.926;7.080;2023-04-25T11:20:19;9.20;69.30
10133;DHT22;5106;50.926;7.080;2023-04-25T11:22:45;9.20;70.40
10133;DHT22;5106;50.926;7.080;2023-04-25T11:25:13;9.20;67.40
10133;DHT22;5106;50.926;7.080;2023-04-25T11:27:57;9.30;69.50
10133;DHT22;5106;50.926;7.080;2023-04-25T11:30:24;9.30;69.20
10133;DHT22;5106;50.926;7.080;2023-04-25T11:32:51;9.40;68.70
10133;DHT22;5106;50.926;7.080;2023-04-25T11:35:18;9.50;66.30
10133;DHT22;5106;50.926;7.080;2023-04-25T11:37:44;9.60;67.10
10133;DHT22;5106;50.926;7.080;2023-04-25T11:40:10;9.70;68.00
10133;DHT22;5106;50.926;7.080;2023-04-25T11:42:43;9.80;66.80
10133;DHT22;5106;50.926;7.080;2023-04-25T11:45:09;9.80;68.00
10133;DHT22;5106;50.926;7.080;2023-04-25T11:47:36;9.90;67.30
10133;DHT22;5106;50.926;7.080;2023-04-25T11:50:03;9.90;66.80
10133;DHT22;5106;50.926;7.080;2023-04-25T11:55:03;9.90;67.40
10133;DHT22;5106;50.926;7.080;2023-04-25T11:57:31;9.90;66.10
10133;DHT22;5106;50.926;7.080;2023-04-25T12:00:06;9.90;67.30
10133;DHT22;5106;50.926;7.080;2023-04-25T12:02:31;10.00;66.60
10133;DHT22;5106;50.926;7.080;2023-04-25T12:05:00;10.10;64.80
10133;DHT22;5106;50.926;7.080;2023-04-25T12:07:29;10.00;63.30
10133;DHT22;5106;50.926;7.080;2023-04-25T12:09:55;10.00;63.40
10133;DHT22;5106;50.926;7.080;2023-04-25T12:12:21;10.00;63.70
10133;DHT22;5106;50.926;7.080;2023-04-25T12:14:48;10.10;65.30
10133;DHT22;5106;50.926;7.080;2023-04-25T12:17:14;10.20;64.30
10133;DHT22;5106;50.926;7.080;2023-04-25T12:19:40;10.40;63.10
10133;DHT22;5106;50.926;7.080;2023-04-25T12:22:22;10.40;62.60
10133;DHT22;5106;50.926;7.080;2023-04-25T12:24:48;10.50;62.70
10133;DHT22;5106;50.926;7.080;2023-04-25T12:27:17;10.70;62.70
10133;DHT22;5106;50.926;7.080;2023-04-25T12:29:54;10.80;66.10
10133;DHT22;5106;50.926;7.080;2023-04-25T12:32:20;11.00;61.40
10133;DHT22;5106;50.926;7.080;2023-04-25T12:34:46;11.20;61.40
10133;DHT22;5106;50.926;7.080;2023-04-25T12:37:11;11.30;59.10
10133;DHT22;5106;50.926;7.080;2023-04-25T12:39:37;11.30;57.20
10133;DHT22;5106;50.926;7.080;2023-04-25T12:42:03;11.30;61.00
10133;DHT22;5106;50.926;7.080;2023-04-25T12:44:29;11.30;62.40
10133;DHT22;5106;50.926;7.080;2023-04-25T12:46:54;11.20;62.60
10133;DHT22;5106;50.926;7.080;2023-04-25T12:49:20;11.10;62.60
10133;DHT22;5106;50.926;7.080;2023-04-25T12:51:46;11.00;59.70
10133;DHT22;5106;50.926;7.080;2023-04-25T12:54:12;10.90;56.90
10133;DHT22;5106;50.926;7.080;2023-04-25T12:56:38;10.80;62.30
10133;DHT22;5106;50.926;7.080;2023-04-25T12:59:04;10.80;61.90
10133;DHT22;5106;50.926;7.080;2023-04-25T13:01:29;10.80;62.90
10133;DHT22;5106;50.926;7.080;2023-04-25T13:03:55;10.70;62.40
10133;DHT22;5106;50.926;7.080;2023-04-25T13:06:21;10.60;60.80
10133;DHT22;5106;50.926;7.080;2023-04-25T13:08:47;10.60;60.20
10133;DHT22;5106;50.926;7.080;2023-04-25T13:11:13;10.60;60.30
10133;DHT22;5106;50.926;7.080;2023-04-25T13:13:40;10.50;63.70
10133;DHT22;5106;50.926;7.080;2023-04-25T13:16:06;10.50;63.70
10133;DHT22;5106;50.926;7.080;2023-04-25T13:18:32;10.50;61.70
10133;DHT22;5106;50.926;7.080;2023-04-25T13:20:58;10.50;61.90
10133;DHT22;5106;50.926;7.080;2023-04-25T13:23:26;10.60;63.10
10133;DHT22;5106;50.926;7.080;2023-04-25T13:25:52;10.80;63.70
10133;DHT22;5106;50.926;7.080;2023-04-25T13:28:18;10.80;61.00
10133;DHT22;5106;50.926;7.080;2023-04-25T13:30:45;10.90;57.30
10133;DHT22;5106;50.926;7.080;2023-04-25T13:33:14;11.00;58.50
10133;DHT22;5106;50.926;7.080;2023-04-25T13:35:39;11.10;57.20
10133;DHT22;5106;50.926;7.080;2023-04-25T13:38:05;11.10;56.70
10133;DHT22;5106;50.926;7.080;2023-04-25T13:40:31;11.20;60.80
10133;DHT22;5106;50.926;7.080;2023-04-25T13:42:57;11.20;55.90
10133;DHT22;5106;50.926;7.080;2023-04-25T13:45:24;11.30;56.20
10133;DHT22;5106;50.926;7.080;2023-04-25T13:47:50;11.40;59.30
10133;DHT22;5106;50.926;7.080;2023-04-25T13:50:16;11.50;59.40
10133;DHT22;5106;50.926;7.080;2023-04-25T13:52:42;11.50;60.80
10133;DHT22;5106;50.926;7.080;2023-04-25T13:55:08;11.40;58.00
10133;DHT22;5106;50.926;7.080;2023-04-25T13:57:35;11.20;60.20
10133;DHT22;5106;50.926;7.080;2023-04-25T14:00:02;11.00;59.40
10133;DHT22;5106;50.926;7.080;2023-04-25T14:02:46;10.90;61.20
10133;DHT22;5106;50.926;7.080;2023-04-25T14:05:12;10.90;63.30
10133;DHT22;5106;50.926;7.080;2023-04-25T14:07:38;11.10;65.10
10133;DHT22;5106;50.926;7.080;2023-04-25T14:10:04;11.40;62.20
10133;DHT22;5106;50.926;7.080;2023-04-25T14:12:30;11.70;62.80
10133;DHT22;5106;50.926;7.080;2023-04-25T14:14:56;12.00;63.50
10133;DHT22;5106;50.926;7.080;2023-04-25T14:17:22;12.20;62.50
10133;DHT22;5106;50.926;7.080;2023-04-25T14:19:49;12.30;67.60
10133;DHT22;5106;50.926;7.080;2023-04-25T14:22:15;12.40;61.20
10133;DHT22;5106;50.926;7.080;2023-04-25T14:24:41;12.40;65.00
10133;DHT22;5106;50.926;7.080;2023-04-25T14:27:07;12.40;56.70
10133;DHT22;5106;50.926;7.080;2023-04-25T14:29:33;12.40;64.60
10133;DHT22;5106;50.926;7.080;2023-04-25T14:31:58;12.50;59.30
10133;DHT22;5106;50.926;7.080;2023-04-25T14:34:24;12.50;62.40
10133;DHT22;5106;50.926;7.080;2023-04-25T14:36:52;12.50;59.90
10133;DHT22;5106;50.926;7.080;2023-04-25T14:39:19;12.70;60.60
10133;DHT22;5106;50.926;7.080;2023-04-25T14:41:45;12.60;60.10
10133;DHT22;5106;50.926;7.080;2023-04-25T14:44:11;12.70;62.00
10133;DHT22;5106;50.926;7.080;2023-04-25T14:46:37;12.80;62.30
10133;DHT22;5106;50.926;7.080;2023-04-25T14:49:03;12.90;59.30
10133;DHT22;5106;50.926;7.080;2023-04-25T14:51:28;12.50;57.30
10133;DHT22;5106;50.926;7.080;2023-04-25T14:53:55;12.50;58.30
10133;DHT22;5106;50.926;7.080;2023-04-25T14:56:20;12.40;61.80
10133;DHT22;5106;50.926;7.080;2023-04-25T14:58:46;12.30;61.30
10133;DHT22;5106;50.926;7.080;2023-04-25T15:01:12;12.30;63.90
10133;DHT22;5106;50.926;7.080;2023-04-25T15:03:41;12.40;56.20
10133;DHT22;5106;50.926;7.080;2023-04-25T15:06:07;12.70;55.60
10133;DHT22;5106;50.926;7.080;2023-04-25T15:08:33;13.00;59.00
10133;DHT22;5106;50.926;7.080;2023-04-25T15:11:00;13.10;53.70
10133;DHT22;5106;50.926;7.080;2023-04-25T15:13:26;13.00;53.60
10133;DHT22;5106;50.926;7.080;2023-04-25T15:15:52;12.80;54.60
10133;DHT22;5106;50.926;7.080;2023-04-25T15:18:20;12.30;54.80
10133;DHT22;5106;50.926;7.080;2023-04-25T15:20:50;12.10;58.00
10133;DHT22;5106;50.926;7.080;2023-04-25T15:23:17;11.90;58.10
10133;DHT22;5106;50.926;7.080;2023-04-25T15:25:43;11.70;57.90
10133;DHT22;5106;50.926;7.080;2023-04-25T15:28:09;11.50;58.60
10133;DHT22;5106;50.926;7.080;2023-04-25T15:30:35;11.70;57.90
10133;DHT22;5106;50.926;7.080;2023-04-25T15:33:00;12.20;58.70
10133;DHT22;5106;50.926;7.080;2023-04-25T15:35:26;12.70;54.50
10133;DHT22;5106;50.926;7.080;2023-04-25T15:37:52;12.90;54.40
10133;DHT22;5106;50.926;7.080;2023-04-25T15:40:17;12.90;52.60
10133;DHT22;5106;50.926;7.080;2023-04-25T15:42:45;13.00;53.40
10133;DHT22;5106;50.926;7.080;2023-04-25T15:45:13;13.10;53.10
10133;DHT22;5106;50.926;7.080;2023-04-25T15:47:39;13.10;51.90
10133;DHT22;5106;50.926;7.080;2023-04-25T15:50:07;13.20;52.40
10133;DHT22;5106;50.926;7.080;2023-04-25T15:52:34;13.50;53.20
10133;DHT22;5106;50.926;7.080;2023-04-25T15:55:01;13.80;56.70
10133;DHT22;5106;50.926;7.080;2023-04-25T15:57:26;14.00;53.40
10133;DHT22;5106;50.926;7.080;2023-04-25T15:59:52;14.10;50.10
10133;DHT22;5106;50.926;7.080;2023-04-25T16:02:18;13.90;50.90